Time;durP1;ratioP1;P1;durP2;ratioP2;P2;SDS_P1;SDS_P2;PMS_P1;PMS_P2;Temp;Humidity;BMP_temperature;BMP_pressure;BME280_temperature;BME280_humidity;BME280_pressure;Samples;Min_cycle;Max_cycle;Signal;HPM_P1;HPM_P2
2022/09/11 00:01:12;;;;;;;;;;;22.00;66.90;;;;;;4461751;32;19988;-69
2022/09/11 00:03:39;;;;;;;;;;;21.90;66.90;;;;;;4462204;32;19982;-70
2022/09/11 00:06:07;;;;;;;;;;;21.90;66.90;;;;;;4461933;32;19999;-70
2022/09/11 00:08:33;;;;;;;;;;;21.90;66.80;;;;;;4461880;32;20032;-70
2022/09/11 00:11:04;;;;;;;;;;;21.90;66.80;;;;;;4462178;32;20124;-69
2022/09/11 00:13:30;;;;;;;;;;;21.90;66.80;;;;;;4462115;32;20542;-70
2022/09/11 00:15:56;;;;;;;;;;;21.90;66.80;;;;;;4461530;32;20039;-69
2022/09/11 00:18:22;;;;;;;;;;;21.90;66.80;;;;;;4461721;32;19974;-70
2022/09/11 00:20:51;;;;;;;;;;;21.90;66.80;;;;;;4461426;32;19962;-69
2022/09/11 00:23:18;;;;;;;;;;;21.90;66.80;;;;;;4461795;32;20040;-69
2022/09/11 00:25:45;;;;;;;;;;;21.90;66.80;;;;;;4461656;32;20000;-71
2022/09/11 00:28:15;;;;;;;;;;;21.90;66.80;;;;;;4461878;32;19974;-69
2022/09/11 00:30:42;;;;;;;;;;;21.90;66.80;;;;;;4460883;32;20009;-69
2022/09/11 00:33:08;;;;;;;;;;;21.90;66.70;;;;;;4461494;32;19970;-70
2022/09/11 00:35:34;;;;;;;;;;;21.90;66.70;;;;;;4460471;32;19988;-70
2022/09/11 00:37:59;;;;;;;;;;;21.90;66.70;;;;;;4447426;32;20327;-70
2022/09/11 00:40:25;;;;;;;;;;;21.80;66.60;;;;;;4461355;32;19970;-69
2022/09/11 00:42:52;;;;;;;;;;;21.90;66.70;;;;;;4461493;32;19970;-71
2022/09/11 00:45:25;;;;;;;;;;;21.90;66.70;;;;;;4461095;32;19978;-71
2022/09/11 00:47:52;;;;;;;;;;;21.80;66.70;;;;;;4461640;32;20192;-69
2022/09/11 00:50:20;;;;;;;;;;;21.80;66.60;;;;;;4460973;32;20501;-70
2022/09/11 00:52:53;;;;;;;;;;;21.80;66.70;;;;;;4461605;32;19973;-69
2022/09/11 00:55:20;;;;;;;;;;;21.80;66.60;;;;;;4461328;32;19977;-70
2022/09/11 00:57:48;;;;;;;;;;;21.80;66.60;;;;;;4461281;32;19974;-70
2022/09/11 01:00:14;;;;;;;;;;;21.80;66.60;;;;;;4461231;32;19982;-70
2022/09/11 01:02:41;;;;;;;;;;;21.80;66.60;;;;;;4461599;32;20042;-70
2022/09/11 01:05:08;;;;;;;;;;;21.90;66.70;;;;;;4461475;32;20021;-70
2022/09/11 01:07:35;;;;;;;;;;;21.90;66.70;;;;;;4460979;32;20100;-70
2022/09/11 01:10:02;;;;;;;;;;;21.80;66.60;;;;;;4461443;32;20108;-70
2022/09/11 01:12:35;;;;;;;;;;;21.90;66.70;;;;;;4461230;32;20103;-70
2022/09/11 01:15:03;;;;;;;;;;;21.90;66.70;;;;;;4461092;32;20320;-70
2022/09/11 01:17:42;;;;;;;;;;;21.80;66.60;;;;;;4460841;32;19982;-69
2022/09/11 01:20:20;;;;;;;;;;;21.80;66.60;;;;;;4461524;32;19974;-70
2022/09/11 01:23:21;;;;;;;;;;;21.80;66.60;;;;;;4461153;32;20099;-70
2022/09/11 01:25:58;;;;;;;;;;;21.80;66.60;;;;;;4397830;32;20429;-70
2022/09/11 01:28:34;;;;;;;;;;;21.80;66.60;;;;;;4452397;32;19978;-70
2022/09/11 01:31:04;;;;;;;;;;;21.80;66.60;;;;;;4461537;32;20044;-70
2022/09/11 01:33:46;;;;;;;;;;;21.80;66.60;;;;;;4462035;32;20010;-70
2022/09/11 01:36:24;;;;;;;;;;;21.80;66.60;;;;;;4461459;32;20100;-69
2022/09/11 01:38:52;;;;;;;;;;;21.80;66.60;;;;;;4461554;32;20017;-69
2022/09/11 01:41:36;;;;;;;;;;;21.80;66.60;;;;;;4462632;32;20398;-70
2022/09/11 01:44:05;;;;;;;;;;;21.80;66.60;;;;;;4464362;32;19974;-70
2022/09/11 01:46:39;;;;;;;;;;;21.80;66.60;;;;;;4463726;32;19985;-69
2022/09/11 01:49:09;;;;;;;;;;;21.70;66.50;;;;;;4449983;32;19986;-69
2022/09/11 01:51:36;;;;;;;;;;;21.80;66.60;;;;;;4464260;32;19993;-70
2022/09/11 01:54:06;;;;;;;;;;;21.70;66.50;;;;;;4463971;32;19977;-69
2022/09/11 01:56:39;;;;;;;;;;;21.70;66.60;;;;;;4464053;32;19985;-69
2022/09/11 01:59:08;;;;;;;;;;;21.70;66.60;;;;;;4463831;32;19988;-69
2022/09/11 02:01:35;;;;;;;;;;;21.80;66.60;;;;;;4464333;32;19974;-70
2022/09/11 02:04:09;;;;;;;;;;;21.70;66.60;;;;;;4463751;32;19974;-69
2022/09/11 02:06:40;;;;;;;;;;;21.70;66.50;;;;;;4463477;32;20387;-69
2022/09/11 02:09:08;;;;;;;;;;;21.70;66.50;;;;;;4463803;32;19977;-69
2022/09/11 02:11:35;;;;;;;;;;;21.70;66.50;;;;;;4463397;32;20398;-70
2022/09/11 02:14:19;;;;;;;;;;;21.70;66.50;;;;;;4463625;32;19985;-69
2022/09/11 02:16:48;;;;;;;;;;;21.70;66.50;;;;;;4463638;32;19970;-69
2022/09/11 02:19:15;;;;;;;;;;;21.70;66.50;;;;;;4463534;32;19981;-70
2022/09/11 02:21:42;;;;;;;;;;;21.70;66.50;;;;;;4463728;32;19974;-69
2022/09/11 02:24:08;;;;;;;;;;;21.70;66.50;;;;;;4463368;32;20052;-69
2022/09/11 02:26:38;;;;;;;;;;;21.70;66.50;;;;;;4463407;32;19978;-69
2022/09/11 02:29:04;;;;;;;;;;;21.70;66.50;;;;;;4463596;32;19966;-70
2022/09/11 02:31:30;;;;;;;;;;;21.70;66.50;;;;;;4463410;32;20379;-69
2022/09/11 02:33:56;;;;;;;;;;;21.70;66.50;;;;;;4463337;32;20384;-69
2022/09/11 02:36:37;;;;;;;;;;;21.70;66.50;;;;;;4448901;32;19981;-71
2022/09/11 02:39:21;;;;;;;;;;;21.70;66.50;;;;;;4463477;32;19981;-70
2022/09/11 02:42:07;;;;;;;;;;;21.70;67.40;;;;;;4462932;32;19984;-69
2022/09/11 02:44:44;;;;;;;;;;;21.70;66.50;;;;;;4451843;32;20055;-69
2022/09/11 02:47:17;;;;;;;;;;;21.70;66.50;;;;;;4463490;32;20367;-69
2022/09/11 02:49:52;;;;;;;;;;;21.70;66.40;;;;;;4463432;32;20013;-70
2022/09/11 02:52:39;;;;;;;;;;;21.70;66.50;;;;;;4462279;32;19974;-70
2022/09/11 02:55:12;;;;;;;;;;;21.70;66.40;;;;;;4452802;32;20001;-70
2022/09/11 02:57:42;;;;;;;;;;;21.60;66.40;;;;;;4462996;32;20068;-70
2022/09/11 03:00:08;;;;;;;;;;;21.70;66.50;;;;;;4462885;32;20390;-70
2022/09/11 03:02:38;;;;;;;;;;;21.60;66.40;;;;;;4463413;32;20390;-69
2022/09/11 03:05:04;;;;;;;;;;;21.60;66.40;;;;;;4463009;32;19974;-70
2022/09/11 03:07:31;;;;;;;;;;;21.70;66.50;;;;;;4463121;32;20041;-69
2022/09/11 03:09:57;;;;;;;;;;;21.60;66.40;;;;;;4462335;32;20303;-70
2022/09/11 03:12:23;;;;;;;;;;;21.60;66.40;;;;;;4462643;32;20009;-69
2022/09/11 03:14:50;;;;;;;;;;;21.60;66.40;;;;;;4462508;32;19973;-71
2022/09/11 03:17:16;;;;;;;;;;;21.60;66.40;;;;;;4462505;32;19986;-70
2022/09/11 03:19:42;;;;;;;;;;;21.60;66.40;;;;;;4462721;32;20044;-70
2022/09/11 03:22:07;;;;;;;;;;;21.60;66.40;;;;;;4462730;32;19958;-71
2022/09/11 03:24:33;;;;;;;;;;;21.60;66.40;;;;;;4462410;32;19954;-69
2022/09/11 03:26:59;;;;;;;;;;;21.60;66.30;;;;;;4462396;32;19954;-70
2022/09/11 03:29:25;;;;;;;;;;;21.60;66.40;;;;;;4462588;32;20446;-70
2022/09/11 03:31:50;;;;;;;;;;;21.60;66.40;;;;;;4462509;32;20071;-70
2022/09/11 03:34:16;;;;;;;;;;;21.60;66.40;;;;;;4462430;32;19973;-70
2022/09/11 03:36:42;;;;;;;;;;;21.60;66.30;;;;;;4462559;32;19975;-70
2022/09/11 03:39:08;;;;;;;;;;;21.60;66.40;;;;;;4461972;32;20514;-69
2022/09/11 03:41:34;;;;;;;;;;;21.60;66.30;;;;;;4461304;32;19966;-70
2022/09/11 03:44:00;;;;;;;;;;;21.60;66.30;;;;;;4462483;32;19993;-69
2022/09/11 03:46:26;;;;;;;;;;;21.60;66.30;;;;;;4462389;32;19958;-70
2022/09/11 03:48:52;;;;;;;;;;;21.60;66.40;;;;;;4462214;32;19986;-70
2022/09/11 03:51:19;;;;;;;;;;;21.60;66.40;;;;;;4460972;32;20043;-70
2022/09/11 03:53:45;;;;;;;;;;;21.60;66.30;;;;;;4462074;32;19986;-70
2022/09/11 03:56:13;;;;;;;;;;;21.60;66.30;;;;;;4462058;32;19989;-70
2022/09/11 03:58:39;;;;;;;;;;;21.60;66.30;;;;;;4461943;32;20084;-69
2022/09/11 04:01:09;;;;;;;;;;;21.60;66.30;;;;;;4461917;32;20112;-69
2022/09/11 04:03:35;;;;;;;;;;;21.60;66.30;;;;;;4461829;32;20311;-70
2022/09/11 04:06:01;;;;;;;;;;;21.60;66.30;;;;;;4461594;32;19962;-69
2022/09/11 04:08:32;;;;;;;;;;;21.50;66.30;;;;;;4461825;32;20392;-70
2022/09/11 04:11:05;;;;;;;;;;;21.50;66.20;;;;;;4461906;32;20047;-70
2022/09/11 04:13:35;;;;;;;;;;;21.60;66.30;;;;;;4461906;32;20092;-69
2022/09/11 04:16:05;;;;;;;;;;;21.60;66.30;;;;;;4461687;32;20118;-70
2022/09/11 04:18:33;;;;;;;;;;;21.50;66.30;;;;;;4461284;32;20059;-70
2022/09/11 04:21:02;;;;;;;;;;;21.50;66.20;;;;;;4461611;32;20056;-70
2022/09/11 04:23:29;;;;;;;;;;;21.50;66.30;;;;;;4461537;32;19988;-69
2022/09/11 04:25:55;;;;;;;;;;;21.50;66.30;;;;;;4461552;32;19986;-70
2022/09/11 04:28:21;;;;;;;;;;;21.50;66.30;;;;;;4461471;32;20009;-70
2022/09/11 04:30:47;;;;;;;;;;;21.50;66.30;;;;;;4461459;32;19981;-69
2022/09/11 04:33:12;;;;;;;;;;;21.50;66.20;;;;;;4461205;32;19966;-70
2022/09/11 04:35:39;;;;;;;;;;;21.50;66.20;;;;;;4447489;32;20002;-70
2022/09/11 04:38:06;;;;;;;;;;;21.50;66.20;;;;;;4461696;32;20408;-69
2022/09/11 04:40:33;;;;;;;;;;;21.50;66.20;;;;;;4461476;32;19978;-70
2022/09/11 04:42:59;;;;;;;;;;;21.50;66.30;;;;;;4461514;32;20375;-69
2022/09/11 04:45:26;;;;;;;;;;;21.50;66.20;;;;;;4461312;32;20101;-70
2022/09/11 04:47:51;;;;;;;;;;;21.50;66.20;;;;;;4461652;32;20064;-70
2022/09/11 04:50:18;;;;;;;;;;;21.50;66.20;;;;;;4447300;32;20064;-70
2022/09/11 04:52:44;;;;;;;;;;;21.50;67.10;;;;;;4461602;32;20124;-70
2022/09/11 04:55:10;;;;;;;;;;;21.50;66.30;;;;;;4447239;32;20366;-69
2022/09/11 04:57:37;;;;;;;;;;;21.50;66.20;;;;;;4461556;32;20009;-69
2022/09/11 05:00:03;;;;;;;;;;;21.50;66.30;;;;;;4460980;32;20331;-69
2022/09/11 05:02:29;;;;;;;;;;;21.50;66.20;;;;;;4447340;32;19974;-72
2022/09/11 05:04:55;;;;;;;;;;;21.50;66.20;;;;;;4461247;32;19977;-69
2022/09/11 05:07:21;;;;;;;;;;;21.50;66.20;;;;;;4461276;32;20439;-70
2022/09/11 05:09:46;;;;;;;;;;;21.40;66.10;;;;;;4460992;32;20024;-69
2022/09/11 05:12:12;;;;;;;;;;;21.50;66.20;;;;;;4461272;32;20367;-69
2022/09/11 05:14:38;;;;;;;;;;;21.40;66.10;;;;;;4461183;32;20283;-70
2022/09/11 05:17:04;;;;;;;;;;;21.50;66.20;;;;;;4465701;32;20044;-69
2022/09/11 05:19:30;;;;;;;;;;;21.50;66.20;;;;;;4466274;32;20478;-70
2022/09/11 05:21:55;;;;;;;;;;;21.40;66.10;;;;;;4466316;32;19970;-69
2022/09/11 05:24:21;;;;;;;;;;;21.40;66.10;;;;;;4466326;32;19974;-70
2022/09/11 05:26:47;;;;;;;;;;;21.50;66.20;;;;;;4465203;32;19970;-70
2022/09/11 05:29:13;;;;;;;;;;;21.40;66.10;;;;;;4466349;32;19974;-69
2022/09/11 05:31:40;;;;;;;;;;;21.40;66.10;;;;;;4466255;32;19986;-70
2022/09/11 05:34:06;;;;;;;;;;;21.40;66.10;;;;;;4466269;32;19974;-69
2022/09/11 05:36:35;;;;;;;;;;;21.40;66.10;;;;;;4466521;32;19977;-70
2022/09/11 05:39:02;;;;;;;;;;;21.40;66.10;;;;;;4466032;32;20009;-69
2022/09/11 05:41:28;;;;;;;;;;;21.40;66.10;;;;;;4466335;32;20269;-73
2022/09/11 05:43:54;;;;;;;;;;;21.40;66.10;;;;;;4451989;32;19977;-69
2022/09/11 05:46:20;;;;;;;;;;;21.40;66.10;;;;;;4466101;32;20032;-69
2022/09/11 05:48:46;;;;;;;;;;;21.40;66.10;;;;;;4466409;32;20060;-69
2022/09/11 05:51:13;;;;;;;;;;;21.40;66.10;;;;;;4465967;32;19965;-69
2022/09/11 05:53:40;;;;;;;;;;;21.40;66.10;;;;;;4451991;32;19978;-69
2022/09/11 05:56:24;;;;;;;;;;;21.40;66.10;;;;;;4466295;32;19977;-70
2022/09/11 05:58:50;;;;;;;;;;;21.40;66.10;;;;;;4466040;32;20479;-70
2022/09/11 06:01:17;;;;;;;;;;;21.40;66.10;;;;;;4466077;32;19966;-70
2022/09/11 06:03:43;;;;;;;;;;;21.40;66.10;;;;;;4466019;32;19970;-70
2022/09/11 06:06:10;;;;;;;;;;;21.40;66.10;;;;;;4466045;32;20427;-69
2022/09/11 06:08:36;;;;;;;;;;;21.40;66.20;;;;;;4465983;32;19962;-70
2022/09/11 06:11:06;;;;;;;;;;;21.40;66.10;;;;;;4465954;32;19974;-69
2022/09/11 06:13:33;;;;;;;;;;;21.40;66.10;;;;;;4465902;32;19996;-70
2022/09/11 06:15:59;;;;;;;;;;;21.40;66.10;;;;;;4451858;32;20014;-69
2022/09/11 06:18:25;;;;;;;;;;;21.40;66.10;;;;;;4465840;32;20147;-69
2022/09/11 06:20:57;;;;;;;;;;;21.40;66.10;;;;;;4465884;32;20316;-69
2022/09/11 06:23:23;;;;;;;;;;;21.40;67.00;;;;;;4465948;32;19986;-70
2022/09/11 06:25:49;;;;;;;;;;;21.50;66.20;;;;;;4465885;32;20005;-69
2022/09/11 06:28:14;;;;;;;;;;;21.40;66.10;;;;;;4463895;32;20060;-69
2022/09/11 06:30:40;;;;;;;;;;;21.40;66.10;;;;;;4463306;32;20076;-70
2022/09/11 06:33:06;;;;;;;;;;;21.40;66.10;;;;;;4463699;32;19989;-69
2022/09/11 06:35:32;;;;;;;;;;;21.50;66.10;;;;;;4463683;32;19978;-70
2022/09/11 06:37:57;;;;;;;;;;;21.50;66.10;;;;;;4463502;32;19966;-69
2022/09/11 06:40:23;;;;;;;;;;;21.50;66.10;;;;;;4463570;32;19977;-69
2022/09/11 06:42:50;;;;;;;;;;;21.50;66.10;;;;;;4463235;32;19978;-70
2022/09/11 06:45:16;;;;;;;;;;;21.50;66.10;;;;;;4463238;32;19985;-71
2022/09/11 06:47:43;;;;;;;;;;;21.50;66.10;;;;;;4463062;32;20293;-70
2022/09/11 06:50:10;;;;;;;;;;;21.50;66.10;;;;;;4462616;32;19986;-69
2022/09/11 06:52:36;;;;;;;;;;;21.50;66.10;;;;;;4461891;32;20498;-69
2022/09/11 06:55:03;;;;;;;;;;;21.50;66.10;;;;;;4462787;32;20447;-70
2022/09/11 06:57:28;;;;;;;;;;;21.50;66.10;;;;;;4462993;32;19977;-69
2022/09/11 06:59:58;;;;;;;;;;;21.50;66.10;;;;;;4462860;32;19981;-69
2022/09/11 07:02:24;;;;;;;;;;;21.50;66.10;;;;;;4462906;32;20383;-69
2022/09/11 07:04:50;;;;;;;;;;;21.50;66.10;;;;;;4462907;32;19974;-70
2022/09/11 07:07:15;;;;;;;;;;;21.60;66.10;;;;;;4462829;32;20044;-70
2022/09/11 07:09:41;;;;;;;;;;;21.60;66.00;;;;;;4463032;32;19958;-69
2022/09/11 07:12:07;;;;;;;;;;;21.60;66.00;;;;;;4463011;32;19973;-69
2022/09/11 07:14:33;;;;;;;;;;;21.60;66.00;;;;;;4461788;32;20395;-69
2022/09/11 07:16:59;;;;;;;;;;;21.60;66.00;;;;;;4462904;32;19989;-69
2022/09/11 07:19:26;;;;;;;;;;;21.60;66.00;;;;;;4462607;32;19982;-69
2022/09/11 07:21:52;;;;;;;;;;;21.60;66.00;;;;;;4462795;32;20328;-70
2022/09/11 07:24:18;;;;;;;;;;;21.60;66.00;;;;;;4462554;32;19977;-71
2022/09/11 07:26:43;;;;;;;;;;;21.60;66.10;;;;;;4462615;32;20096;-72
2022/09/11 07:29:10;;;;;;;;;;;21.70;66.30;;;;;;4462509;32;20092;-72
2022/09/11 07:31:37;;;;;;;;;;;21.70;66.40;;;;;;4462476;32;19970;-72
2022/09/11 07:34:03;;;;;;;;;;;21.80;66.50;;;;;;4463278;32;20297;-74
2022/09/11 07:36:30;;;;;;;;;;;21.80;66.40;;;;;;4462622;32;19981;-71
2022/09/11 07:38:56;;;;;;;;;;;21.90;66.60;;;;;;4461968;32;19985;-71
2022/09/11 07:41:23;;;;;;;;;;;21.90;66.60;;;;;;4462624;32;19966;-71
2022/09/11 07:43:53;;;;;;;;;;;21.90;67.10;;;;;;4462317;32;19984;-71
2022/09/11 07:46:19;;;;;;;;;;;22.00;67.10;;;;;;4462507;32;20071;-71
2022/09/11 07:48:44;;;;;;;;;;;22.00;67.20;;;;;;4462541;32;20378;-71
2022/09/11 07:51:12;;;;;;;;;;;22.10;67.40;;;;;;4461984;32;20449;-71
2022/09/11 07:53:45;;;;;;;;;;;22.10;67.30;;;;;;4461949;32;19974;-71
2022/09/11 07:56:16;;;;;;;;;;;22.10;67.30;;;;;;4462154;32;20382;-71
2022/09/11 07:58:42;;;;;;;;;;;22.20;67.30;;;;;;4462160;32;19977;-71
2022/09/11 08:01:10;;;;;;;;;;;22.20;67.20;;;;;;4461238;32;19992;-71
2022/09/11 08:03:35;;;;;;;;;;;22.20;67.30;;;;;;4447999;32;20103;-72
2022/09/11 08:06:10;;;;;;;;;;;22.30;67.20;;;;;;4461819;32;20140;-71
2022/09/11 08:08:37;;;;;;;;;;;22.30;67.10;;;;;;4462244;32;20108;-72
2022/09/11 08:11:04;;;;;;;;;;;22.30;67.00;;;;;;4461618;32;20301;-71
2022/09/11 08:13:30;;;;;;;;;;;22.40;67.00;;;;;;4461516;32;19980;-71
2022/09/11 08:15:55;;;;;;;;;;;22.40;66.90;;;;;;4461727;32;19970;-71
2022/09/11 08:18:21;;;;;;;;;;;22.50;66.80;;;;;;4461795;32;20171;-71
2022/09/11 08:20:47;;;;;;;;;;;22.50;66.70;;;;;;4461739;32;19966;-71
2022/09/11 08:23:14;;;;;;;;;;;22.50;66.60;;;;;;4462191;32;20033;-70
2022/09/11 08:25:40;;;;;;;;;;;22.60;66.60;;;;;;4461408;32;19993;-71
2022/09/11 08:28:05;;;;;;;;;;;22.60;66.50;;;;;;4461695;32;20013;-71
2022/09/11 08:30:31;;;;;;;;;;;22.60;66.50;;;;;;4461812;32;20088;-71
2022/09/11 08:32:58;;;;;;;;;;;22.60;66.50;;;;;;4461642;32;20103;-71
2022/09/11 08:35:24;;;;;;;;;;;22.60;66.40;;;;;;4461615;32;20304;-71
2022/09/11 08:37:50;;;;;;;;;;;22.50;66.20;;;;;;4461888;32;19966;-71
2022/09/11 08:40:16;;;;;;;;;;;22.50;66.20;;;;;;4461749;32;19986;-72
2022/09/11 08:42:44;;;;;;;;;;;22.50;66.20;;;;;;4461521;32;19985;-70
2022/09/11 08:45:13;;;;;;;;;;;22.50;66.30;;;;;;4461942;32;19978;-71
2022/09/11 08:47:41;;;;;;;;;;;22.50;66.40;;;;;;4461771;32;19989;-71
2022/09/11 08:50:27;;;;;;;;;;;22.50;66.60;;;;;;4460731;32;19988;-71
2022/09/11 08:52:55;;;;;;;;;;;22.40;66.50;;;;;;4434680;32;19989;-71
2022/09/11 08:55:33;;;;;;;;;;;22.40;66.50;;;;;;4461372;32;20146;-71
2022/09/11 08:58:14;;;;;;;;;;;22.40;66.50;;;;;;4461418;32;20312;-71
2022/09/11 09:00:42;;;;;;;;;;;22.40;66.40;;;;;;4461370;32;19984;-71
2022/09/11 09:03:29;;;;;;;;;;;22.40;66.60;;;;;;4461081;32;19966;-71
2022/09/11 09:05:57;;;;;;;;;;;22.40;66.80;;;;;;4461525;32;19974;-71
2022/09/11 09:08:23;;;;;;;;;;;22.40;66.90;;;;;;4461229;32;19970;-70
2022/09/11 09:10:59;;;;;;;;;;;22.40;67.00;;;;;;4460983;32;19973;-70
2022/09/11 09:13:31;;;;;;;;;;;22.30;67.10;;;;;;4460870;32;19982;-71
2022/09/11 09:16:01;;;;;;;;;;;22.30;67.20;;;;;;4460799;32;20100;-72
2022/09/11 09:18:32;;;;;;;;;;;22.30;67.20;;;;;;4460760;32;20383;-72
2022/09/11 09:21:16;;;;;;;;;;;22.30;67.10;;;;;;4461582;32;20084;-71
2022/09/11 09:23:48;;;;;;;;;;;22.30;67.10;;;;;;4461164;32;20010;-71
2022/09/11 09:26:16;;;;;;;;;;;22.30;67.10;;;;;;4461097;32;19966;-72
2022/09/11 09:28:45;;;;;;;;;;;22.30;67.20;;;;;;4461290;32;20112;-72
2022/09/11 09:31:13;;;;;;;;;;;22.30;67.40;;;;;;4447111;32;20378;-74
2022/09/11 09:33:49;;;;;;;;;;;22.30;67.50;;;;;;4461367;32;20089;-72
2022/09/11 09:36:20;;;;;;;;;;;22.30;67.40;;;;;;4461086;32;19974;-71
2022/09/11 09:38:47;;;;;;;;;;;22.30;67.50;;;;;;4460970;32;19977;-71
2022/09/11 09:41:35;;;;;;;;;;;22.30;67.60;;;;;;4460655;32;19982;-71
2022/09/11 09:44:03;;;;;;;;;;;22.30;67.60;;;;;;4461324;32;19973;-71
2022/09/11 09:46:30;;;;;;;;;;;22.30;67.70;;;;;;4460623;32;20108;-71
2022/09/11 09:48:56;;;;;;;;;;;22.30;67.50;;;;;;4446767;32;19974;-72
2022/09/11 09:51:21;;;;;;;;;;;22.30;67.40;;;;;;4460690;32;20462;-72
2022/09/11 09:53:49;;;;;;;;;;;22.30;67.60;;;;;;4461101;32;20044;-71
2022/09/11 09:56:16;;;;;;;;;;;22.40;67.70;;;;;;4461303;32;19978;-71
2022/09/11 09:58:53;;;;;;;;;;;22.40;67.60;;;;;;4460975;32;19985;-70
2022/09/11 10:01:37;;;;;;;;;;;22.40;67.60;;;;;;4461111;32;20380;-71
2022/09/11 10:04:13;;;;;;;;;;;22.40;67.50;;;;;;4463994;32;19990;-71
2022/09/11 10:06:38;;;;;;;;;;;22.40;67.40;;;;;;4464015;32;19977;-71
2022/09/11 10:09:04;;;;;;;;;;;22.50;67.40;;;;;;4463471;32;19958;-71
2022/09/11 10:11:30;;;;;;;;;;;22.50;67.20;;;;;;4463700;32;20410;-71
2022/09/11 10:13:56;;;;;;;;;;;22.50;67.10;;;;;;4449759;32;19978;-70
2022/09/11 10:16:26;;;;;;;;;;;22.50;67.20;;;;;;4463730;32;20408;-70
2022/09/11 10:18:53;;;;;;;;;;;22.50;67.20;;;;;;4449512;32;20002;-73
2022/09/11 10:21:20;;;;;;;;;;;22.50;67.20;;;;;;4463541;32;19978;-71
2022/09/11 10:23:53;;;;;;;;;;;22.50;67.10;;;;;;4463453;32;19966;-72
2022/09/11 10:26:25;;;;;;;;;;;22.50;67.10;;;;;;4463510;32;20052;-71
2022/09/11 10:28:53;;;;;;;;;;;22.50;66.90;;;;;;4463791;32;19982;-71
2022/09/11 10:31:21;;;;;;;;;;;22.50;66.90;;;;;;4463410;32;19966;-76
2022/09/11 10:33:54;;;;;;;;;;;22.50;66.90;;;;;;4449086;32;19973;-71
2022/09/11 10:36:21;;;;;;;;;;;22.50;66.80;;;;;;4463453;32;20025;-71
2022/09/11 10:38:47;;;;;;;;;;;22.60;67.00;;;;;;4463405;32;19988;-71
2022/09/11 10:41:12;;;;;;;;;;;22.60;66.80;;;;;;4463261;32;19978;-71
2022/09/11 10:44:01;;;;;;;;;;;22.60;66.60;;;;;;4463232;32;19970;-71
2022/09/11 10:46:28;;;;;;;;;;;22.60;66.60;;;;;;4462832;32;20388;-70
2022/09/11 10:48:57;;;;;;;;;;;22.60;66.60;;;;;;4463074;32;19982;-71
2022/09/11 10:51:24;;;;;;;;;;;22.60;66.60;;;;;;4462690;32;20403;-71
2022/09/11 10:53:50;;;;;;;;;;;22.60;67.00;;;;;;4463053;32;19962;-71
2022/09/11 10:56:16;;;;;;;;;;;22.50;66.90;;;;;;4463112;32;20446;-72
2022/09/11 10:58:45;;;;;;;;;;;22.50;66.60;;;;;;4463181;32;20014;-71
2022/09/11 11:01:10;;;;;;;;;;;22.50;66.70;;;;;;4448756;32;19966;-75
2022/09/11 11:03:37;;;;;;;;;;;22.50;66.70;;;;;;4461602;32;19973;-71
2022/09/11 11:06:18;;;;;;;;;;;22.60;67.00;;;;;;4461439;32;20327;-71
2022/09/11 11:08:57;;;;;;;;;;;22.50;67.70;;;;;;4462862;32;20009;-71
2022/09/11 11:11:38;;;;;;;;;;;22.50;66.90;;;;;;4462829;32;20506;-72
2022/09/11 11:14:25;;;;;;;;;;;22.50;66.70;;;;;;4462350;32;20055;-71
2022/09/11 11:17:12;;;;;;;;;;;22.60;66.60;;;;;;4430867;32;20371;-71
2022/09/11 11:19:47;;;;;;;;;;;22.60;66.60;;;;;;4462739;32;20047;-71
2022/09/11 11:22:22;;;;;;;;;;;22.60;66.60;;;;;;4462759;32;19982;-72
2022/09/11 11:24:48;;;;;;;;;;;22.60;66.50;;;;;;4462385;32;20103;-72
2022/09/11 11:27:24;;;;;;;;;;;22.60;66.50;;;;;;4462589;32;19962;-71
2022/09/11 11:30:07;;;;;;;;;;;22.60;66.70;;;;;;4462615;32;19986;-70
2022/09/11 11:32:45;;;;;;;;;;;22.60;67.00;;;;;;4462530;32;19978;-71
2022/09/11 11:35:30;;;;;;;;;;;22.60;67.20;;;;;;4462479;32;19988;-76
2022/09/11 11:38:09;;;;;;;;;;;22.60;66.90;;;;;;4462667;32;19974;-71
2022/09/11 11:40:40;;;;;;;;;;;22.60;66.60;;;;;;4462417;32;19974;-70
2022/09/11 11:43:08;;;;;;;;;;;22.50;66.50;;;;;;4448864;32;19989;-70
2022/09/11 11:45:37;;;;;;;;;;;22.60;66.60;;;;;;4461952;32;20285;-70
2022/09/11 11:48:17;;;;;;;;;;;22.50;66.60;;;;;;4461989;32;20451;-70
2022/09/11 11:50:45;;;;;;;;;;;22.50;66.60;;;;;;4462008;32;19980;-70
2022/09/11 11:53:23;;;;;;;;;;;22.50;66.90;;;;;;4461970;32;20391;-69
2022/09/11 11:55:55;;;;;;;;;;;22.50;67.00;;;;;;4462002;32;19978;-70
2022/09/11 11:58:30;;;;;;;;;;;22.50;66.90;;;;;;4462462;32;19974;-69
2022/09/11 12:00:59;;;;;;;;;;;22.50;67.00;;;;;;4447989;32;20475;-69
2022/09/11 12:03:32;;;;;;;;;;;22.40;67.10;;;;;;4462061;32;19978;-70
2022/09/11 12:05:58;;;;;;;;;;;22.40;67.10;;;;;;4462055;32;20051;-70
2022/09/11 12:08:26;;;;;;;;;;;22.40;67.20;;;;;;4461740;32;20395;-70
2022/09/11 12:10:55;;;;;;;;;;;22.40;67.20;;;;;;4461973;32;20120;-70
2022/09/11 12:13:24;;;;;;;;;;;22.40;67.30;;;;;;4461929;32;19970;-70
2022/09/11 12:15:56;;;;;;;;;;;22.40;67.30;;;;;;4461813;32;19962;-69
2022/09/11 12:18:23;;;;;;;;;;;22.40;67.30;;;;;;4461756;32;20073;-70
2022/09/11 12:20:49;;;;;;;;;;;22.40;67.40;;;;;;4461860;32;20398;-70
2022/09/11 12:23:30;;;;;;;;;;;22.40;67.50;;;;;;4461746;32;20065;-70
2022/09/11 12:26:16;;;;;;;;;;;22.40;67.60;;;;;;4447669;32;20507;-70
2022/09/11 12:28:42;;;;;;;;;;;22.40;67.60;;;;;;4450828;32;20120;-70
2022/09/11 12:31:10;;;;;;;;;;;22.40;67.60;;;;;;4461723;32;19970;-70
2022/09/11 12:33:48;;;;;;;;;;;22.40;67.70;;;;;;4461631;32;19984;-70
2022/09/11 12:36:16;;;;;;;;;;;22.40;67.70;;;;;;4461486;32;20375;-70
2022/09/11 12:38:46;;;;;;;;;;;22.40;67.80;;;;;;4461578;32;20206;-70
2022/09/11 12:41:21;;;;;;;;;;;22.40;67.80;;;;;;4461539;32;20010;-69
2022/09/11 12:43:48;;;;;;;;;;;22.40;67.80;;;;;;4461663;32;19981;-70
2022/09/11 12:46:19;;;;;;;;;;;22.40;67.70;;;;;;4461396;32;20390;-71
2022/09/11 12:48:55;;;;;;;;;;;22.40;67.60;;;;;;4461712;32;20314;-70
2022/09/11 12:51:42;;;;;;;;;;;22.40;67.60;;;;;;4461276;32;20010;-70
2022/09/11 12:54:17;;;;;;;;;;;22.50;67.60;;;;;;4461179;32;20307;-70
2022/09/11 12:56:49;;;;;;;;;;;22.50;67.60;;;;;;4461071;32;20092;-70
2022/09/11 12:59:44;;;;;;;;;;;22.50;67.80;;;;;;4461481;32;20375;-70
2022/09/11 13:02:28;;;;;;;;;;;22.50;67.80;;;;;;4447818;32;20386;-70
2022/09/11 13:04:54;;;;;;;;;;;22.50;67.90;;;;;;4461005;32;20009;-70
2022/09/11 13:07:35;;;;;;;;;;;22.40;67.90;;;;;;4461264;32;20039;-70
2022/09/11 13:10:06;;;;;;;;;;;22.40;67.80;;;;;;4461227;32;20023;-70
2022/09/11 13:12:49;;;;;;;;;;;22.40;67.80;;;;;;4461534;32;20344;-70
2022/09/11 13:15:35;;;;;;;;;;;22.50;67.80;;;;;;4461188;32;19970;-70
2022/09/11 13:18:13;;;;;;;;;;;22.40;67.60;;;;;;4461496;32;19981;-70
2022/09/11 13:20:39;;;;;;;;;;;22.50;67.60;;;;;;4461471;32;20100;-70
2022/09/11 13:23:17;;;;;;;;;;;22.50;67.70;;;;;;4461151;32;19976;-70
2022/09/11 13:25:43;;;;;;;;;;;22.50;67.60;;;;;;4461479;32;20017;-70
2022/09/11 13:28:12;;;;;;;;;;;22.50;67.60;;;;;;4446920;32;20392;-70
2022/09/11 13:30:46;;;;;;;;;;;22.50;67.60;;;;;;4461112;32;20380;-72
2022/09/11 13:33:19;;;;;;;;;;;22.50;67.50;;;;;;4461197;32;20010;-70
2022/09/11 13:35:45;;;;;;;;;;;22.60;67.50;;;;;;4461032;32;20418;-70
2022/09/11 13:38:19;;;;;;;;;;;22.60;67.50;;;;;;4463493;32;20116;-70
2022/09/11 13:40:46;;;;;;;;;;;22.60;67.50;;;;;;4464006;32;19980;-70
2022/09/11 13:43:14;;;;;;;;;;;22.60;67.50;;;;;;4464510;32;20451;-70
2022/09/11 13:45:40;;;;;;;;;;;22.60;67.40;;;;;;4464859;32;19986;-71
2022/09/11 13:48:19;;;;;;;;;;;22.60;67.50;;;;;;4465987;32;20312;-70
2022/09/11 13:50:46;;;;;;;;;;;22.60;67.60;;;;;;4450662;32;19973;-69
2022/09/11 13:53:12;;;;;;;;;;;22.60;67.50;;;;;;4464719;32;20006;-70
2022/09/11 13:55:37;;;;;;;;;;;22.60;67.50;;;;;;4464115;32;20302;-70
2022/09/11 13:58:20;;;;;;;;;;;22.60;67.50;;;;;;4464007;32;19962;-70
2022/09/11 14:00:49;;;;;;;;;;;22.60;67.50;;;;;;4464119;32;20384;-71
2022/09/11 14:03:30;;;;;;;;;;;22.60;67.50;;;;;;4449852;32;20510;-70
2022/09/11 14:06:00;;;;;;;;;;;22.60;67.50;;;;;;4463987;32;19984;-70
2022/09/11 14:08:34;;;;;;;;;;;22.70;67.50;;;;;;4463450;32;19996;-70
2022/09/11 14:11:03;;;;;;;;;;;22.70;67.50;;;;;;4463648;32;20335;-69
2022/09/11 14:13:32;;;;;;;;;;;22.70;67.50;;;;;;4463919;32;20410;-71
2022/09/11 14:16:03;;;;;;;;;;;22.70;67.60;;;;;;4463623;32;19985;-70
2022/09/11 14:18:32;;;;;;;;;;;22.80;67.00;;;;;;4463417;32;19970;-71
2022/09/11 14:21:00;;;;;;;;;;;22.80;66.90;;;;;;4463648;32;19982;-71
2022/09/11 14:23:27;;;;;;;;;;;22.80;66.60;;;;;;4449311;32;19981;-71
2022/09/11 14:26:07;;;;;;;;;;;22.90;66.60;;;;;;4463301;32;19998;-70
2022/09/11 14:28:41;;;;;;;;;;;22.90;66.30;;;;;;4463496;32;20461;-70
2022/09/11 14:31:08;;;;;;;;;;;22.90;66.30;;;;;;4463256;32;19981;-70